ADDS METAR Data INFO
IDs: Format: Raw Decoded Include TAF

Data at: 1505 UTC 11 Dec 2017

KHHG 111455Z AUTO 20004KT 10SM SCT070 BKN085 M02/M05 A2998 RMK AO2 T10211050 TSNO
KHHG 111435Z AUTO 19007KT 10SM BKN070 OVC095 M02/M05 A2999 RMK AO2 T10231050 TSNO
KHHG 111415Z AUTO 17004KT 10SM SCT070 OVC085 M03/M05 A2998 RMK AO2 T10271050 TSNO
KHHG 111355Z AUTO 18004KT 10SM SCT070 OVC085 M03/M05 A3000 RMK AO2 T10301050 TSNO
KHHG 111335Z AUTO 16004KT 10SM OVC085 M03/M05 A3001 RMK AO2 T10321052 TSNO
KHHG 111315Z AUTO 21003KT 10SM OVC085 M03/M05 A3003 RMK AO2 T10351052 TSNO
KHHG 111255Z AUTO 00000KT 10SM BKN070 OVC085 M03/M05 A3004 RMK AO2 T10351052 TSNO
KHHG 111235Z AUTO 00000KT 10SM BKN080 OVC090 M04/M05 A3005 RMK AO2 T10361055 TSNO
KHHG 111215Z AUTO 00000KT 10SM BKN095 M04/M05 A3004 RMK AO2 T10381055 TSNO
KHHG 111155Z AUTO 21003KT 10SM CLR M04/M05 A3004 RMK AO2 T10401055 11011 21057 TSNO
KHHG 111135Z AUTO 00000KT 10SM CLR M04/M06 A3003 RMK AO2 T10421056 TSNO
KHHG 111115Z AUTO 00000KT 10SM CLR M05/M06 A3003 RMK AO2 T10511060 TSNO
KHHG 111055Z AUTO 00000KT 10SM CLR M04/M06 A3004 RMK AO2 T10451058 TSNO
KHHG 111035Z AUTO 20003KT 10SM CLR M05/M05 A3004 RMK AO2 T10461055 TSNO
KHHG 111015Z AUTO 00000KT 10SM CLR M05/M06 A3004 RMK AO2 T10551065 TSNO
KHHG 110955Z AUTO 00000KT 10SM CLR M05/M06 A3004 RMK AO2 T10461063 TSNO
KHHG 110935Z AUTO 24003KT 10SM CLR M05/M06 A3005 RMK AO2 T10471064 TSNO
KHHG 110915Z AUTO 00000KT 10SM CLR M05/M07 A3005 RMK AO2 T10491066 TSNO
KHHG 110855Z AUTO 23003KT 10SM SCT027 M04/M06 A3006 RMK AO2 T10401059 TSNO
KHHG 110835Z AUTO 25003KT 10SM BKN027 M04/M06 A3006 RMK AO2 T10371058 TSNO
KHHG 110815Z AUTO 00000KT 10SM OVC027 M02/M06 A3005 RMK AO2 T10251057 TSNO
KHHG 110755Z AUTO 27003KT 10SM BKN031 M03/M06 A3005 RMK AO2 T10271057 TSNO
KHHG 110735Z AUTO 26004KT 10SM SCT031 M03/M06 A3005 RMK AO2 T10311060 TSNO
KHHG 110715Z AUTO 27004KT 10SM BKN031 M02/M06 A3005 RMK AO2 T10231057 TSNO
KHHG 110655Z AUTO 29003KT 10SM BKN029 M02/M06 A3005 RMK AO2 T10161056 TSNO
KHHG 110635Z AUTO 31003KT 10SM OVC031 M02/M06 A3006 RMK AO2 T10161056 TSNO
KHHG 110615Z AUTO 31004KT 10SM OVC031 M01/M05 A3005 RMK AO2 T10121053 TSNO
KHHG 110555Z AUTO 29003KT 10SM OVC031 M01/M05 A3006 RMK AO2 T10111053 10007 21011 TSNO
KHHG 110535Z AUTO 29004KT 10SM OVC031 M01/M05 A3006 RMK AO2 T10101051 TSNO
KHHG 110515Z AUTO 30005KT 10SM OVC029 M01/M05 A3005 RMK AO2 T10101052 TSNO
KHHG 110455Z AUTO 31006KT 10SM OVC027 M01/M05 A3005 RMK AO2 T10081054 400101085 TSNO
KHHG 110435Z AUTO 31006KT 10SM OVC025 M01/M05 A3005 RMK AO2 T10081050 TSNO
KHHG 110415Z AUTO 32005KT 10SM OVC023 M01/M05 A3004 RMK AO2 T10071052 TSNO
KHHG 110355Z AUTO 32007KT 10SM OVC023 M01/M05 A3004 RMK AO2 T10071050 TSNO
KHHG 110335Z AUTO 31006KT 10SM OVC023 M01/M05 A3003 RMK AO2 T10071047 TSNO
KHHG 110315Z AUTO 32009KT 10SM OVC023 M01/M05 A3002 RMK AO2 T10071047 TSNO
KHHG 110255Z AUTO 31007KT 10SM OVC023 M01/M05 A3002 RMK AO2 T10071047 TSNO
KHHG 110235Z AUTO 31005KT 10SM BKN023 OVC032 M01/M05 A3001 RMK AO2 T10081047 TSNO
KHHG 110215Z AUTO 31006KT 10SM OVC034 M01/M05 A3001 RMK AO2 T10061050 TSNO
KHHG 110155Z AUTO 32008G14KT 10SM OVC034 00/M05 A3000 RMK AO2 T10051050 TSNO
KHHG 110135Z AUTO 32008KT 10SM OVC036 00/M05 A3000 RMK AO2 T10051052 TSNO
KHHG 110115Z AUTO 32006KT 10SM OVC036 00/M05 A2999 RMK AO2 T10011050 TSNO
KHHG 110055Z AUTO 32008KT 10SM OVC038 00/M05 A2998 RMK AO2 T00011048 TSNO
KHHG 110035Z AUTO 31007KT 10SM OVC040 01/M05 A2997 RMK AO2 T00051049 TSNO
KHHG 110015Z AUTO 28004KT 10SM OVC040 01/M05 A2996 RMK AO2 T00061051 TSNO
KHHG 102355Z AUTO 25005KT 10SM OVC040 01/M05 A2995 RMK AO2 T00051050 10010 21013 TSNO
KHHG 102335Z AUTO 25005KT 10SM OVC042 01/M05 A2995 RMK AO2 T00051052 TSNO
KHHG 102315Z AUTO 24003KT 10SM OVC042 01/M05 A2994 RMK AO2 T00051052 TSNO
KHHG 102255Z AUTO 23003KT 10SM OVC040 01/M06 A2993 RMK AO2 T00071060 TSNO
KHHG 102235Z AUTO 25006KT 10SM OVC040 01/M06 A2994 RMK AO2 T00081059 TSNO
KHHG 102215Z AUTO 24007KT 10SM OVC040 01/M06 A2993 RMK AO2 T00071058 TSNO
KHHG 102155Z AUTO 24008KT 10SM OVC040 01/M06 A2992 RMK AO2 T00071061 TSNO
KHHG 102135Z AUTO 24008KT 10SM OVC040 01/M06 A2992 RMK AO2 T00061064 TSNO
KHHG 102115Z AUTO 24006KT 10SM OVC040 01/M06 A2991 RMK AO2 T00051065 TSNO
KHHG 102055Z AUTO 24005KT 10SM OVC040 00/M07 A2990 RMK AO2 T00041069 TSNO
KHHG 102035Z AUTO 23009KT 10SM OVC040 00/M07 A2990 RMK AO2 T00031067 TSNO
KHHG 102015Z AUTO 23008KT 10SM BKN040 00/M07 A2990 RMK AO2 T00001068 TSNO
KHHG 101955Z AUTO 25007G15KT 10SM CLR 00/M07 A2990 RMK AO2 T00001069 TSNO
KHHG 101935Z AUTO 22012G17KT 10SM CLR 00/M07 A2989 RMK AO2 T00001074 TSNO
KHHG 101915Z AUTO 22011KT 10SM CLR 00/M07 A2989 RMK AO2 T10021072 TSNO
KHHG 101855Z AUTO 22009G15KT 10SM CLR M01/M07 A2989 RMK AO2 T10061073 TSNO
KHHG 101835Z AUTO 21012G16KT 10SM CLR M01/M07 A2990 RMK AO2 T10061073 TSNO
KHHG 101815Z AUTO 22010G16KT 10SM CLR M01/M08 A2991 RMK AO2 T10101077 TSNO
KHHG 101755Z AUTO 23010G17KT 10SM CLR M01/M08 A2992 RMK AO2 T10131078 11013 21073 TSNO
KHHG 101735Z AUTO 23011G17KT 10SM SCT085 M02/M08 A2993 RMK AO2 T10171081 TSNO
KHHG 101715Z AUTO 22013G18KT 10SM SCT085 BKN120 M02/M08 A2994 RMK AO2 T10201081 TSNO
KHHG 101655Z AUTO 22013G18KT 10SM BKN085 OVC120 M02/M08 A2995 RMK AO2 T10241080 TSNO
KHHG 101635Z AUTO 22011G18KT 10SM OVC095 M03/M08 A2997 RMK AO2 T10301084 TSNO
KHHG 101615Z AUTO 23012G16KT 10SM OVC095 M03/M08 A2998 RMK AO2 T10351085 TSNO
KHHG 101555Z AUTO 22010G17KT 10SM SCT075 OVC095 M04/M09 A2999 RMK AO2 T10401089 TSNO
KHHG 101535Z AUTO 21010KT 10SM SCT075 OVC095 M04/M09 A3000 RMK AO2 T10441089 TSNO
KHHG 101515Z AUTO 23009KT 190V250 10SM SCT065 OVC095 M05/M09 A3001 RMK AO2 T10481090 TSNO
KHHG 101455Z AUTO 23007KT 10SM BKN065 OVC095 M05/M09 A3001 RMK AO2 T10521091 TSNO
KHHG 101435Z AUTO 22008KT 190V250 10SM OVC065 M05/M09 A3001 RMK AO2 T10551091 TSNO
KHHG 101415Z AUTO 22008KT 10SM OVC065 M06/M09 A3001 RMK AO2 T10561092 TSNO
KHHG 101355Z AUTO 22007KT 10SM BKN065 BKN075 OVC090 M06/M09 A3002 RMK AO2 T10581095 TSNO
KHHG 101335Z AUTO 23006KT 10SM SCT070 OVC090 M06/M09 A3002 RMK AO2 T10601095 TSNO
KHHG 101315Z AUTO 22005KT 10SM OVC090 M06/M10 A3002 RMK AO2 T10631096 TSNO
KHHG 101255Z AUTO 23008KT 10SM OVC090 M06/M10 A3002 RMK AO2 T10651097 TSNO
KHHG 101235Z AUTO 23007KT 10SM OVC090 M07/M10 A3002 RMK AO2 T10671098 TSNO
KHHG 101215Z AUTO 22006KT 10SM OVC100 M07/M10 A3002 RMK AO2 T10711100 TSNO
KHHG 101155Z AUTO 22006KT 10SM BKN100 M07/M10 A3002 RMK AO2 T10741100 11040 21085 TSNO
KHHG 101135Z AUTO 22006KT 10SM CLR M07/M10 A3002 RMK AO2 T10751102 TSNO
KHHG 101115Z AUTO 23005KT 10SM CLR M07/M10 A3002 RMK AO2 T10751102 TSNO
KHHG 101055Z AUTO 24005KT 10SM SCT120 M07/M10 A3002 RMK AO2 T10751105 TSNO
KHHG 101035Z AUTO 24007KT 10SM CLR M07/M10 A3003 RMK AO2 T10751105 TSNO
KHHG 101015Z AUTO 25007KT 10SM CLR M08/M11 A3002 RMK AO2 T10771107 TSNO
KHHG 100955Z AUTO 24005KT 10SM CLR M08/M11 A3002 RMK AO2 T10801109 TSNO
KHHG 100935Z AUTO 25005KT 10SM CLR M08/M11 A3002 RMK AO2 T10821114 TSNO
KHHG 100915Z AUTO 26007KT 10SM CLR M08/M11 A3003 RMK AO2 T10811112 TSNO
KHHG 100855Z AUTO 25008KT 10SM CLR M07/M11 A3003 RMK AO2 T10751108 TSNO
KHHG 100835Z AUTO 25007KT 10SM CLR M07/M10 A3003 RMK AO2 T10731105 TSNO
KHHG 100815Z AUTO 24006KT 10SM CLR M07/M10 A3002 RMK AO2 T10711103 TSNO
KHHG 100755Z AUTO 26007KT 10SM SCT031 SCT043 M06/M10 A3002 RMK AO2 T10651100 TSNO
KHHG 100735Z AUTO 27007KT 10SM OVC029 M05/M09 A3003 RMK AO2 T10551095 TSNO
KHHG 100715Z AUTO 26009G15KT 10SM OVC027 M05/M09 A3003 RMK AO2 T10531090 TSNO
KHHG 100655Z AUTO 26012G18KT 10SM OVC025 M05/M09 A3003 RMK AO2 T10501086 TSNO
KHHG 100635Z AUTO 28011G15KT 10SM OVC023 M05/M08 A3003 RMK AO2 T10461085 TSNO
KHHG 100615Z AUTO 27012G20KT 10SM OVC023 M04/M08 A3003 RMK AO2 T10421081 TSNO
KHHG 100555Z AUTO 28011G16KT 10SM SCT020 OVC027 M04/M07 A3002 RMK AO2 T10401070 11013 21040 TSNO
KHHG 100535Z AUTO 28009G14KT 10SM BKN019 OVC030 M03/M06 A3002 RMK AO2 T10331061 TSNO
KHHG 100510Z AUTO 26008KT 10SM SCT011 OVC017 M03/M05 A3001 RMK AO2 T10271049 TSNO
KHHG 100455Z AUTO 27009KT 10SM BKN011 BKN015 OVC022 M02/M04 A3001 RMK AO2 T10241037 410101048 TSNO
KHHG 100435Z AUTO 29005KT 10SM SCT015 BKN023 OVC033 M02/M03 A3000 RMK AO2 T10251033 TSNO
KHHG 100410Z AUTO 27006KT 7SM -SN SCT009 SCT016 OVC035 M02/M03 A3000 RMK AO2 T10251033 TSNO
KHHG 100355Z AUTO 28005KT 4SM -SN SCT011 BKN032 OVC041 M02/M03 A3000 RMK AO2 T10251035 TSNO
KHHG 100335Z AUTO 30004KT 7SM -SN SCT011 BKN018 OVC031 M02/M04 A3000 RMK AO2 T10251039 TSNO
KHHG 100315Z AUTO 30006KT 7SM -SN OVC015 M02/M04 A2999 RMK AO2 T10221040 TSNO